Time;durP1;ratioP1;P1;durP2;ratioP2;P2;SDS_P1;SDS_P2;PMS_P1;PMS_P2;Temp;Humidity;BMP_temperature;BMP_pressure;BME280_temperature;BME280_humidity;BME280_pressure;Samples;Min_cycle;Max_cycle;Signal;HPM_P1;HPM_P2
2023/10/13 00:01:22;;;;;;;;;;;;;;;;;;4977341;28;89446;-68
2023/10/13 00:03:48;;;;;;;;;;;;;;;;;;4977730;28;90531;-68
2023/10/13 00:06:13;;;;;;;;;;;;;;;;;;4977191;28;90139;-69
2023/10/13 00:08:39;;;;;;;;;;;;;;;;;;4973592;28;89910;-68
2023/10/13 00:11:05;;;;;;;;;;;;;;;;;;4972577;28;89805;-69
2023/10/13 00:13:44;;;;;;;;;;;;;;;;;;4971606;28;89527;-68
2023/10/13 00:16:10;;;;;;;;;;;;;;;;;;4976136;28;89416;-69
2023/10/13 00:18:41;;;;;;;;;;;;;;;;;;4970582;28;90277;-69
2023/10/13 00:21:13;;;;;;;;;;;;;;;;;;4973861;28;89777;-69
2023/10/13 00:23:55;;;;;;;;;;;;;;;;;;4972596;28;90523;-70
2023/10/13 00:26:24;;;;;;;;;;;;;;;;;;4975233;28;89198;-69
2023/10/13 00:28:58;;;;;;;;;;;;;;;;;;4970793;28;90630;-69
2023/10/13 00:31:26;;;;;;;;;;;;;;;;;;4970471;28;90268;-69
2023/10/13 00:33:55;;;;;;;;;;;;;;;;;;4972913;28;89566;-69
2023/10/13 00:36:21;;;;;;;;;;;;;;;;;;4971463;28;89540;-69
2023/10/13 00:38:51;;;;;;;;;;;;;;;;;;4972406;28;89484;-70
2023/10/13 00:41:18;;;;;;;;;;;;;;;;;;4974918;28;89104;-69
2023/10/13 00:44:06;;;;;;;;;;;;;;;;;;4970378;28;91329;-69
2023/10/13 00:46:33;;;;;;;;;;;;;;;;;;4970766;28;92686;-69
2023/10/13 00:48:59;;;;;;;;;;;;;;;;;;4974240;28;90501;-69
2023/10/13 00:51:40;;;;;;;;;;;;;;;;;;4976102;28;89406;-70
2023/10/13 00:54:10;;;;;;;;;;;;;;;;;;4974391;28;89014;-69
2023/10/13 00:56:40;;;;;;;;;;;;;;;;;;4971099;28;89598;-68
2023/10/13 00:59:09;;;;;;;;;;;;;;;;;;4972299;28;90342;-69
2023/10/13 01:01:35;;;;;;;;;;;;;;;;;;4975250;28;89734;-69
2023/10/13 01:04:03;;;;;;;;;;;;;;;;;;4972154;28;91048;-69
2023/10/13 01:06:29;;;;;;;;;;;;;;;;;;4968076;28;89529;-70
2023/10/13 01:08:59;;;;;;;;;;;;;;;;;;4970266;28;89388;-68
2023/10/13 01:11:26;;;;;;;;;;;;;;;;;;4975161;28;90797;-69
2023/10/13 01:13:53;;;;;;;;;;;;;;;;;;4970502;28;89532;-69
2023/10/13 01:16:23;;;;;;;;;;;;;;;;;;4984960;28;92252;-68
2023/10/13 01:18:48;;;;;;;;;;;;;;;;;;4970415;28;91112;-68
2023/10/13 01:21:16;;;;;;;;;;;;;;;;;;4972577;28;89743;-69
2023/10/13 01:23:42;;;;;;;;;;;;;;;;;;4970626;28;90779;-68
2023/10/13 01:26:09;;;;;;;;;;;;;;;;;;4971543;28;90163;-69
2023/10/13 01:28:44;;;;;;;;;;;;;;;;;;4971663;28;89288;-69
2023/10/13 01:31:11;;;;;;;;;;;;;;;;;;4972613;28;90857;-68
2023/10/13 01:33:36;;;;;;;;;;;;;;;;;;4976027;28;90621;-69
2023/10/13 01:36:06;;;;;;;;;;;;;;;;;;4972682;28;89663;-69
2023/10/13 01:38:33;;;;;;;;;;;;;;;;;;4970948;28;91439;-68
2023/10/13 01:40:59;;;;;;;;;;;;;;;;;;4973290;28;89444;-69
2023/10/13 01:43:24;;;;;;;;;;;;;;;;;;4969990;28;90516;-68
2023/10/13 01:45:49;;;;;;;;;;;;;;;;;;4973828;28;89867;-69
2023/10/13 01:48:21;;;;;;;;;;;;;;;;;;4970500;28;90233;-69
2023/10/13 01:50:48;;;;;;;;;;;;;;;;;;4973589;28;90773;-70
2023/10/13 01:53:17;;;;;;;;;;;;;;;;;;4972337;28;90422;-69
2023/10/13 01:55:42;;;;;;;;;;;;;;;;;;4974946;28;89584;-70
2023/10/13 01:58:14;;;;;;;;;;;;;;;;;;4973160;28;89186;-68
2023/10/13 02:00:41;;;;;;;;;;;;;;;;;;4970573;28;89052;-69
2023/10/13 02:03:10;;;;;;;;;;;;;;;;;;4972757;28;89821;-69
2023/10/13 02:05:36;;;;;;;;;;;;;;;;;;4969126;28;90421;-69
2023/10/13 02:08:02;;;;;;;;;;;;;;;;;;4969881;28;90746;-69
2023/10/13 02:10:30;;;;;;;;;;;;;;;;;;4969664;28;90976;-69
2023/10/13 02:12:55;;;;;;;;;;;;;;;;;;4969699;28;90433;-70
2023/10/13 02:15:21;;;;;;;;;;;;;;;;;;4972533;28;89228;-69
2023/10/13 02:17:51;;;;;;;;;;;;;;;;;;4981199;28;89692;-69
2023/10/13 02:20:17;;;;;;;;;;;;;;;;;;4978020;28;90184;-69
2023/10/13 02:22:51;;;;;;;;;;;;;;;;;;4976126;28;90560;-69
2023/10/13 02:25:18;;;;;;;;;;;;;;;;;;4977491;28;89543;-69
2023/10/13 02:27:58;;;;;;;;;;;;;;;;;;4972328;28;89014;-69
2023/10/13 02:30:25;;;;;;;;;;;;;;;;;;4973567;28;90569;-69
2023/10/13 02:32:53;;;;;;;;;;;;;;;;;;4977470;28;90452;-69
2023/10/13 02:35:18;;;;;;;;;;;;;;;;;;4972895;28;89583;-70
2023/10/13 02:37:44;;;;;;;;;;;;;;;;;;4979644;28;90010;-69
2023/10/13 02:40:10;;;;;;;;;;;;;;;;;;4976049;28;89296;-69
2023/10/13 02:42:36;;;;;;;;;;;;;;;;;;4982052;28;89725;-69
2023/10/13 02:45:03;;;;;;;;;;;;;;;;;;4975856;28;92560;-69
2023/10/13 02:47:31;;;;;;;;;;;;;;;;;;4974700;28;91811;-69
2023/10/13 02:50:00;;;;;;;;;;;;;;;;;;4974613;28;89796;-69
2023/10/13 02:52:26;;;;;;;;;;;;;;;;;;4974543;28;89903;-68
2023/10/13 02:54:51;;;;;;;;;;;;;;;;;;4976174;28;90497;-69
2023/10/13 02:57:17;;;;;;;;;;;;;;;;;;4975235;28;90792;-69
2023/10/13 02:59:55;;;;;;;;;;;;;;;;;;4979322;28;89906;-69
2023/10/13 03:02:28;;;;;;;;;;;;;;;;;;4974563;28;90711;-69
2023/10/13 03:04:59;;;;;;;;;;;;;;;;;;4975080;28;89751;-70
2023/10/13 03:07:28;;;;;;;;;;;;;;;;;;4970840;28;89106;-68
2023/10/13 03:09:57;;;;;;;;;;;;;;;;;;4973038;28;90094;-69
2023/10/13 03:12:24;;;;;;;;;;;;;;;;;;4974526;28;89797;-69
2023/10/13 03:14:54;;;;;;;;;;;;;;;;;;4972325;28;89102;-69
2023/10/13 03:17:28;;;;;;;;;;;;;;;;;;4973710;28;90908;-69
2023/10/13 03:19:55;;;;;;;;;;;;;;;;;;4970784;28;90680;-69
2023/10/13 03:22:30;;;;;;;;;;;;;;;;;;4975764;28;89885;-69
2023/10/13 03:24:59;;;;;;;;;;;;;;;;;;4972849;28;90411;-68
2023/10/13 03:27:38;;;;;;;;;;;;;;;;;;4973290;28;89355;-68
2023/10/13 03:30:10;;;;;;;;;;;;;;;;;;4974137;28;90729;-68
2023/10/13 03:32:35;;;;;;;;;;;;;;;;;;4966101;28;89139;-68
2023/10/13 03:37:38;;;;;;;;;;;;;;;;;;4975476;28;89936;-69
2023/10/13 03:40:06;;;;;;;;;;;;;;;;;;4972420;28;89691;-69
2023/10/13 03:42:32;;;;;;;;;;;;;;;;;;4973744;28;89407;-68
2023/10/13 03:44:57;;;;;;;;;;;;;;;;;;4976523;28;91103;-69
2023/10/13 03:47:32;;;;;;;;;;;;;;;;;;4974135;28;89559;-69
2023/10/13 03:50:15;;;;;;;;;;;;;;;;;;4969468;28;89558;-69
2023/10/13 03:52:40;;;;;;;;;;;;;;;;;;4968802;28;90329;-69
2023/10/13 03:55:06;;;;;;;;;;;;;;;;;;4973944;28;89556;-69
2023/10/13 03:57:34;;;;;;;;;;;;;;;;;;4973188;28;90037;-69
2023/10/13 04:00:08;;;;;;;;;;;;;;;;;;4973474;28;90474;-69
2023/10/13 04:02:33;;;;;;;;;;;;;;;;;;4971927;28;89550;-69
2023/10/13 04:05:07;;;;;;;;;;;;;;;;;;4973219;28;90663;-69
2023/10/13 04:15:36;;;;;;;;;;;;;;;;;;4974281;28;89854;-69
2023/10/13 04:18:13;;;;;;;;;;;;;;;;;;4974298;28;89514;-69
2023/10/13 04:20:38;;;;;;;;;;;;;;;;;;4972329;28;90376;-69
2023/10/13 04:23:18;;;;;;;;;;;;;;;;;;4975988;28;89464;-69
2023/10/13 04:30:58;;;;;;;;;;;;;;;;;;4971036;28;89637;-70
2023/10/13 04:33:48;;;;;;;;;;;;;;;;;;4971839;28;90533;-69
2023/10/13 04:36:16;;;;;;;;;;;;;;;;;;4972614;28;89228;-69
2023/10/13 04:41:31;;;;;;;;;;;;;;;;;;4971574;28;89751;-69
2023/10/13 04:43:56;;;;;;;;;;;;;;;;;;4974583;28;90128;-69
2023/10/13 04:46:39;;;;;;;;;;;;;;;;;;4971245;28;89989;-69
2023/10/13 04:49:09;;;;;;;;;;;;;;;;;;4975818;28;89494;-69
2023/10/13 04:51:49;;;;;;;;;;;;;;;;;;4974925;28;89442;-68
2023/10/13 04:54:25;;;;;;;;;;;;;;;;;;4972867;28;89792;-68
2023/10/13 04:56:59;;;;;;;;;;;;;;;;;;4971351;28;89134;-69
2023/10/13 04:59:43;;;;;;;;;;;;;;;;;;4966962;28;90021;-69
2023/10/13 05:49:40;;;;;;;;;;;;;;;;;;4966922;28;89262;-69
2023/10/13 06:29:33;;;;;;;;;;;;;;;;;;4974930;28;91076;-69
2023/10/13 06:31:58;;;;;;;;;;;;;;;;;;4971621;28;89960;-71
2023/10/13 06:34:37;;;;;;;;;;;;;;;;;;4975512;28;90324;-69
2023/10/13 06:37:22;;;;;;;;;;;;;;;;;;4972943;28;90120;-69
2023/10/13 06:39:48;;;;;;;;;;;;;;;;;;4973878;28;89189;-69
2023/10/13 06:42:13;;;;;;;;;;;;;;;;;;4971420;28;90228;-68
2023/10/13 06:44:39;;;;;;;;;;;;;;;;;;4975109;28;90380;-68
2023/10/13 06:47:05;;;;;;;;;;;;;;;;;;4970242;28;89489;-68
2023/10/13 06:49:38;;;;;;;;;;;;;;;;;;4972919;28;90609;-68
2023/10/13 06:52:06;;;;;;;;;;;;;;;;;;4975796;28;90051;-68
2023/10/13 06:54:34;;;;;;;;;;;;;;;;;;4972226;28;89688;-68
2023/10/13 06:57:00;;;;;;;;;;;;;;;;;;4971587;28;90947;-68
2023/10/13 06:59:26;;;;;;;;;;;;;;;;;;4970398;28;89913;-68
2023/10/13 07:01:52;;;;;;;;;;;;;;;;;;4968742;28;90669;-68
2023/10/13 07:04:18;;;;;;;;;;;;;;;;;;4971399;28;90104;-70
2023/10/13 07:06:50;;;;;;;;;;;;;;;;;;4970566;28;89837;-68
2023/10/13 07:09:39;;;;;;;;;;;;;;;;;;4972491;28;89817;-68
2023/10/13 07:12:16;;;;;;;;;;;;;;;;;;4971388;28;89594;-68
2023/10/13 07:14:51;;;;;;;;;;;;;;;;;;4966577;28;89826;-70
2023/10/13 07:17:23;;;;;;;;;;;;;;;;;;4984165;28;91709;-69
2023/10/13 07:19:53;;;;;;;;;;;;;;;;;;4963328;28;92675;-70
2023/10/13 07:22:21;;;;;;;;;;;;;;;;;;4966511;28;90390;-71
2023/10/13 07:24:48;;;;;;;;;;;;;;;;;;4964547;28;90325;-70
2023/10/13 07:27:23;;;;;;;;;;;;;;;;;;4967779;28;89472;-69
2023/10/13 07:30:14;;;;;;;;;;;;;;;;;;4969940;28;90719;-69
2023/10/13 07:32:45;;;;;;;;;;;;;;;;;;4968328;28;90393;-70
2023/10/13 07:35:12;;;;;;;;;;;;;;;;;;4976194;28;89400;-70
2023/10/13 07:37:41;;;;;;;;;;;;;;;;;;4965368;28;90045;-75
2023/10/13 07:40:21;;;;;;;;;;;;;;;;;;4970800;28;89635;-69
2023/10/13 07:42:46;;;;;;;;;;;;;;;;;;4970997;28;90734;-72
2023/10/13 07:45:12;;;;;;;;;;;;;;;;;;4972180;28;89566;-73
2023/10/13 07:47:38;;;;;;;;;;;;;;;;;;4974473;28;89645;-69
2023/10/13 07:50:06;;;;;;;;;;;;;;;;;;4972423;28;91300;-71
2023/10/13 07:52:40;;;;;;;;;;;;;;;;;;4969646;28;90514;-73
2023/10/13 07:55:13;;;;;;;;;;;;;;;;;;4971037;28;89148;-72
2023/10/13 07:57:54;;;;;;;;;;;;;;;;;;4977367;28;91080;-73
2023/10/13 08:08:35;;;;;;;;;;;;;;;;;;4971207;28;89622;-72
2023/10/13 08:11:08;;;;;;;;;;;;;;;;;;4969391;28;89743;-71
2023/10/13 08:13:36;;;;;;;;;;;;;;;;;;4970513;28;89535;-71
2023/10/13 08:16:07;;;;;;;;;;;;;;;;;;4968977;28;89719;-72
2023/10/13 08:18:33;;;;;;;;;;;;;;;;;;4970045;28;90862;-72
2023/10/13 08:21:02;;;;;;;;;;;;;;;;;;4974833;28;90733;-71
2023/10/13 08:23:57;;;;;;;;;;;;;;;;;;4967823;28;90997;-72
2023/10/13 08:26:29;;;;;;;;;;;;;;;;;;4968133;28;90705;-71
2023/10/13 08:28:55;;;;;;;;;;;;;;;;;;4970637;28;89592;-71
2023/10/13 08:31:25;;;;;;;;;;;;;;;;;;4970935;28;90698;-71
2023/10/13 08:33:57;;;;;;;;;;;;;;;;;;4966716;28;89536;-72
2023/10/13 08:36:29;;;;;;;;;;;;;;;;;;4974906;28;89937;-71
2023/10/13 08:38:55;;;;;;;;;;;;;;;;;;4972839;28;89834;-71
2023/10/13 08:43:53;;;;;;;;;;;;;;;;;;4976373;28;89182;-70
2023/10/13 08:46:27;;;;;;;;;;;;;;;;;;4970039;28;90143;-70
2023/10/13 08:49:03;;;;;;;;;;;;;;;;;;4968249;28;89564;-76
2023/10/13 08:51:43;;;;;;;;;;;;;;;;;;4970148;28;91376;-70
2023/10/13 08:54:19;;;;;;;;;;;;;;;;;;4969268;28;90384;-69
2023/10/13 08:56:54;;;;;;;;;;;;;;;;;;4967334;28;90126;-70
2023/10/13 08:59:52;;;;;;;;;;;;;;;;;;4970070;28;90691;-69
2023/10/13 09:02:18;;;;;;;;;;;;;;;;;;4967250;28;89934;-72
2023/10/13 09:04:44;;;;;;;;;;;;;;;;;;4970813;28;89092;-71
2023/10/13 09:07:15;;;;;;;;;;;;;;;;;;4971734;28;90550;-72
2023/10/13 09:12:18;;;;;;;;;;;;;;;;;;4974835;28;89734;-71
2023/10/13 09:14:56;;;;;;;;;;;;;;;;;;4969571;28;92418;-70
2023/10/13 09:25:34;;;;;;;;;;;;;;;;;;4973504;28;90405;-73
2023/10/13 09:28:00;;;;;;;;;;;;;;;;;;4953367;28;90889;-71
2023/10/13 09:30:28;;;;;;;;;;;;;;;;;;4968287;28;89579;-74
2023/10/13 09:33:01;;;;;;;;;;;;;;;;;;4969803;28;91008;-71
2023/10/13 09:35:28;;;;;;;;;;;;;;;;;;4970144;28;90653;-70
2023/10/13 09:37:56;;;;;;;;;;;;;;;;;;4968591;28;89632;-70
2023/10/13 09:40:25;;;;;;;;;;;;;;;;;;4970837;28;89746;-70
2023/10/13 09:42:51;;;;;;;;;;;;;;;;;;4952701;28;90468;-71
2023/10/13 09:45:17;;;;;;;;;;;;;;;;;;4977122;28;89891;-71
2023/10/13 09:47:44;;;;;;;;;;;;;;;;;;4970724;28;91119;-70
2023/10/13 09:50:23;;;;;;;;;;;;;;;;;;4955370;28;91733;-72
2023/10/13 09:52:50;;;;;;;;;;;;;;;;;;4967629;28;90970;-72
2023/10/13 09:55:19;;;;;;;;;;;;;;;;;;4971034;28;90274;-71
2023/10/13 09:57:48;;;;;;;;;;;;;;;;;;4968098;28;89102;-73
2023/10/13 10:03:50;;;;;;;;;;;;;;;;;;4971680;28;89776;-71
2023/10/13 10:06:13;;;;;;;;;;;;;;;;;;4958637;28;90514;-71
2023/10/13 10:08:48;;;;;;;;;;;;;;;;;;4971757;28;91219;-71
2023/10/13 10:11:20;;;;;;;;;;;;;;;;;;4971142;28;90261;-69
2023/10/13 10:14:08;;;;;;;;;;;;;;;;;;4973775;28;89459;-71
2023/10/13 10:16:52;;;;;;;;;;;;;;;;;;4972602;28;90422;-72
2023/10/13 10:19:18;;;;;;;;;;;;;;;;;;4969052;28;89414;-71
2023/10/13 10:21:43;;;;;;;;;;;;;;;;;;4967289;28;89508;-71
2023/10/13 10:24:29;;;;;;;;;;;;;;;;;;4969070;28;89416;-73
2023/10/13 10:26:54;;;;;;;;;;;;;;;;;;4966191;28;90041;-77
2023/10/13 10:29:20;;;;;;;;;;;;;;;;;;4965528;28;89625;-71
2023/10/13 10:31:45;;;;;;;;;;;;;;;;;;4965556;28;90730;-70
2023/10/13 10:34:14;;;;;;;;;;;;;;;;;;4966558;28;90274;-68
2023/10/13 10:36:42;;;;;;;;;;;;;;;;;;4969403;28;89489;-72
2023/10/13 10:39:10;;;;;;;;;;;;;;;;;;4971806;28;89477;-71
2023/10/13 10:41:44;;;;;;;;;;;;;;;;;;4972049;28;89646;-70
2023/10/13 10:44:16;;;;;;;;;;;;;;;;;;4967611;28;89761;-70
2023/10/13 10:46:51;;;;;;;;;;;;;;;;;;4972515;28;89671;-68
2023/10/13 10:49:27;;;;;;;;;;;;;;;;;;4971473;28;89554;-71
2023/10/13 10:51:57;;;;;;;;;;;;;;;;;;4975165;28;90263;-69
2023/10/13 10:54:29;;;;;;;;;;;;;;;;;;4971226;28;90600;-71
2023/10/13 10:56:55;;;;;;;;;;;;;;;;;;4970664;28;89968;-71
2023/10/13 10:59:24;;;;;;;;;;;;;;;;;;4973185;28;91187;-69
2023/10/13 11:01:53;;;;;;;;;;;;;;;;;;4972481;28;90846;-72
2023/10/13 11:04:18;;;;;;;;;;;;;;;;;;4973477;28;90032;-71
2023/10/13 11:07:00;;;;;;;;;;;;;;;;;;4967353;28;89555;-69
2023/10/13 11:11:57;;;;;;;;;;;;;;;;;;4966382;28;89320;-67
2023/10/13 11:14:25;;;;;;;;;;;;;;;;;;4966516;28;90090;-71
2023/10/13 11:16:51;;;;;;;;;;;;;;;;;;4967496;28;89288;-72
2023/10/13 11:19:20;;;;;;;;;;;;;;;;;;4973512;28;90006;-72
2023/10/13 11:21:47;;;;;;;;;;;;;;;;;;4968026;28;89996;-71
2023/10/13 11:24:13;;;;;;;;;;;;;;;;;;4967302;28;89820;-71
2023/10/13 11:26:50;;;;;;;;;;;;;;;;;;4966775;28;90325;-70
2023/10/13 11:29:18;;;;;;;;;;;;;;;;;;4964601;28;90530;-71
2023/10/13 11:31:44;;;;;;;;;;;;;;;;;;4969454;28;90263;-71
2023/10/13 11:34:11;;;;;;;;;;;;;;;;;;4968832;28;90450;-72
2023/10/13 11:36:36;;;;;;;;;;;;;;;;;;4968784;28;89928;-71
2023/10/13 11:39:01;;;;;;;;;;;;;;;;;;4969536;28;89652;-71
2023/10/13 11:41:34;;;;;;;;;;;;;;;;;;4970963;28;89724;-70
2023/10/13 11:51:42;;;;;;;;;;;;;;;;;;4971630;28;89497;-70
2023/10/13 11:54:08;;;;;;;;;;;;;;;;;;4976134;28;89646;-72
2023/10/13 11:56:33;;;;;;;;;;;;;;;;;;4969902;28;90834;-71
2023/10/13 11:59:01;;;;;;;;;;;;;;;;;;4968034;28;89222;-73
2023/10/13 12:04:32;;;;;;;;;;;;;;;;;;4973826;28;89554;-70
2023/10/13 12:07:17;;;;;;;;;;;;;;;;;;4970622;28;89776;-72
2023/10/13 12:12:18;;;;;;;;;;;;;;;;;;4965269;28;89688;-72
2023/10/13 12:14:52;;;;;;;;;;;;;;;;;;4969826;28;89623;-71
2023/10/13 12:17:24;;;;;;;;;;;;;;;;;;4971332;28;90672;-72
2023/10/13 12:19:51;;;;;;;;;;;;;;;;;;4963780;28;90098;-72
2023/10/13 12:22:25;;;;;;;;;;;;;;;;;;4962240;28;89727;-73
2023/10/13 12:24:53;;;;;;;;;;;;;;;;;;4970394;28;91680;-72
2023/10/13 12:27:18;;;;;;;;;;;;;;;;;;4972167;28;91005;-72
2023/10/13 12:29:47;;;;;;;;;;;;;;;;;;4953526;28;92720;-71
2023/10/13 12:32:14;;;;;;;;;;;;;;;;;;4967941;28;89816;-72
2023/10/13 12:37:49;;;;;;;;;;;;;;;;;;4972956;28;89417;-70
2023/10/13 12:51:20;;;;;;;;;;;;;;;;;;4975200;28;90499;-72
2023/10/13 12:53:49;;;;;;;;;;;;;;;;;;4967740;28;90513;-70
2023/10/13 12:56:15;;;;;;;;;;;;;;;;;;4977117;28;89674;-71
2023/10/13 12:58:41;;;;;;;;;;;;;;;;;;4970395;28;90066;-71
2023/10/13 13:01:06;;;;;;;;;;;;;;;;;;4972804;28;90166;-71
2023/10/13 13:03:32;;;;;;;;;;;;;;;;;;4968291;28;89957;-72
2023/10/13 13:05:57;;;;;;;;;;;;;;;;;;4972482;28;93590;-70
2023/10/13 13:08:23;;;;;;;;;;;;;;;;;;4970521;28;89960;-71
2023/10/13 13:10:48;;;;;;;;;;;;;;;;;;4972697;28;89710;-70
2023/10/13 13:13:16;;;;;;;;;;;;;;;;;;4967771;28;91026;-71
2023/10/13 13:15:42;;;;;;;;;;;;;;;;;;4973098;28;89050;-70
2023/10/13 13:18:11;;;;;;;;;;;;;;;;;;4968640;28;90703;-71
2023/10/13 13:20:39;;;;;;;;;;;;;;;;;;4965119;28;92986;-71
2023/10/13 13:23:04;;;;;;;;;;;;;;;;;;4966884;28;89884;-70
2023/10/13 13:25:33;;;;;;;;;;;;;;;;;;4964266;28;89633;-71
2023/10/13 13:28:04;;;;;;;;;;;;;;;;;;4965857;28;89276;-70
2023/10/13 13:30:33;;;;;;;;;;;;;;;;;;4968381;28;89463;-71
2023/10/13 13:33:03;;;;;;;;;;;;;;;;;;4969267;28;91252;-71
2023/10/13 13:35:33;;;;;;;;;;;;;;;;;;4968648;28;89213;-71
2023/10/13 13:38:06;;;;;;;;;;;;;;;;;;4970557;28;90766;-71
2023/10/13 13:40:34;;;;;;;;;;;;;;;;;;4968167;28;90362;-69
2023/10/13 13:43:00;;;;;;;;;;;;;;;;;;4968318;28;89509;-71
2023/10/13 13:45:28;;;;;;;;;;;;;;;;;;4971967;28;91324;-71
2023/10/13 13:47:54;;;;;;;;;;;;;;;;;;4968096;28;90427;-71
2023/10/13 13:50:25;;;;;;;;;;;;;;;;;;4968782;28;89660;-71
2023/10/13 13:52:52;;;;;;;;;;;;;;;;;;4961503;28;90880;-71
2023/10/13 13:55:17;;;;;;;;;;;;;;;;;;4972051;28;90619;-70
2023/10/13 13:57:43;;;;;;;;;;;;;;;;;;4971388;28;89669;-71
2023/10/13 14:00:16;;;;;;;;;;;;;;;;;;4968501;28;90949;-71
2023/10/13 14:02:49;;;;;;;;;;;;;;;;;;4948744;28;89684;-72
2023/10/13 14:05:15;;;;;;;;;;;;;;;;;;4968277;28;89186;-71
2023/10/13 14:07:48;;;;;;;;;;;;;;;;;;4965370;28;89769;-71
2023/10/13 14:10:30;;;;;;;;;;;;;;;;;;4950232;28;89531;-72
2023/10/13 14:13:06;;;;;;;;;;;;;;;;;;4914794;28;95222;-71
2023/10/13 14:15:40;;;;;;;;;;;;;;;;;;4921053;28;91692;-71
2023/10/13 14:18:07;;;;;;;;;;;;;;;;;;4936390;28;92151;-72
2023/10/13 14:20:32;;;;;;;;;;;;;;;;;;4971271;28;90176;-71
2023/10/13 14:22:57;;;;;;;;;;;;;;;;;;4969805;28;90176;-72
2023/10/13 14:25:28;;;;;;;;;;;;;;;;;;4972419;28;90610;-72
2023/10/13 14:27:53;;;;;;;;;;;;;;;;;;4972498;28;89988;-73
2023/10/13 14:30:23;;;;;;;;;;;;;;;;;;4970699;28;89578;-72
2023/10/13 14:32:48;;;;;;;;;;;;;;;;;;4971695;28;89597;-72
2023/10/13 14:35:16;;;;;;;;;;;;;;;;;;4972698;28;89495;-72
2023/10/13 14:37:41;;;;;;;;;;;;;;;;;;4976399;28;89691;-71
2023/10/13 14:40:12;;;;;;;;;;;;;;;;;;4971712;28;90159;-71
2023/10/13 14:42:40;;;;;;;;;;;;;;;;;;4972169;28;89538;-71
2023/10/13 14:45:12;;;;;;;;;;;;;;;;;;4973604;28;90346;-71
2023/10/13 14:47:39;;;;;;;;;;;;;;;;;;4102596;28;10001057;-71
2023/10/13 14:50:05;;;;;;;;;;;;;;;;;;4988412;28;89986;-71
2023/10/13 14:52:31;;;;;;;;;;;;;;;;;;4987711;28;89313;-71
2023/10/13 14:54:57;;;;;;;;;;;;;;;;;;4988893;28;90828;-72
2023/10/13 14:57:24;;;;;;;;;;;;;;;;;;4985730;28;89448;-71
2023/10/13 14:59:50;;;;;;;;;;;;;;;;;;4987596;28;89216;-71
2023/10/13 15:02:16;;;;;;;;;;;;;;;;;;3227685;28;10000565;-70
2023/10/13 15:04:49;;;;;;;;;;;;;;;;;;2501665;28;10001021;-71
2023/10/13 15:07:17;;;;;;;;;;;;;;;;;;4980980;28;91497;-70
2023/10/13 15:09:43;;;;;;;;;;;;;;;;;;4103894;28;10000694;-70
2023/10/13 15:12:11;;;;;;;;;;;;;;;;;;4091539;28;10000746;-71
2023/10/13 15:14:43;;;;;;;;;;;;;;;;;;4988527;28;89492;-71
2023/10/13 15:17:09;;;;;;;;;;;;;;;;;;4987340;28;90613;-70
2023/10/13 15:19:38;;;;;;;;;;;;;;;;;;4105004;28;10001277;-70
2023/10/13 15:22:06;;;;;;;;;;;;;;;;;;4984209;28;89971;-71
2023/10/13 15:24:36;;;;;;;;;;;;;;;;;;4989014;28;89391;-70
2023/10/13 15:27:02;;;;;;;;;;;;;;;;;;4984921;28;90513;-70
2023/10/13 15:29:35;;;;;;;;;;;;;;;;;;4987959;28;89849;-70
2023/10/13 15:34:26;;;;;;;;;;;;;;;;;;4986036;28;89150;-71
2023/10/13 15:36:54;;;;;;;;;;;;;;;;;;4986803;28;89468;-70
2023/10/13 15:39:28;;;;;;;;;;;;;;;;;;4412016;28;10000195;-71
2023/10/13 15:41:58;;;;;;;;;;;;;;;;;;3923731;28;10000379;-70
2023/10/13 15:44:29;;;;;;;;;;;;;;;;;;2431413;28;10000992;-71
2023/10/13 15:46:55;;;;;;;;;;;;;;;;;;3577129;28;10000980;-71
2023/10/13 15:49:21;;;;;;;;;;;;;;;;;;4987775;28;89676;-72
2023/10/13 15:51:47;;;;;;;;;;;;;;;;;;4102020;28;10000657;-75
2023/10/13 15:54:15;;;;;;;;;;;;;;;;;;4111138;28;10001489;-70
2023/10/13 15:56:44;;;;;;;;;;;;;;;;;;4984586;28;90481;-73
2023/10/13 15:59:09;;;;;;;;;;;;;;;;;;4984197;28;89588;-73
2023/10/13 16:01:35;;;;;;;;;;;;;;;;;;4985037;28;89660;-73
2023/10/13 16:04:10;;;;;;;;;;;;;;;;;;4985208;28;90398;-72
2023/10/13 16:06:37;;;;;;;;;;;;;;;;;;4984080;28;90441;-72
2023/10/13 16:09:03;;;;;;;;;;;;;;;;;;4980580;28;90285;-72
2023/10/13 16:11:28;;;;;;;;;;;;;;;;;;4987491;28;89282;-73
2023/10/13 16:13:53;;;;;;;;;;;;;;;;;;4986121;28;89529;-73
2023/10/13 16:16:23;;;;;;;;;;;;;;;;;;4985353;28;90017;-72
2023/10/13 16:18:49;;;;;;;;;;;;;;;;;;4986175;28;90020;-72
2023/10/13 16:21:14;;;;;;;;;;;;;;;;;;4983590;28;89488;-73
2023/10/13 16:23:50;;;;;;;;;;;;;;;;;;4986414;28;89464;-73
2023/10/13 16:26:21;;;;;;;;;;;;;;;;;;4985835;28;89112;-73
2023/10/13 16:28:53;;;;;;;;;;;;;;;;;;4986102;28;89678;-72
2023/10/13 16:31:22;;;;;;;;;;;;;;;;;;4988510;28;90423;-74
2023/10/13 16:33:47;;;;;;;;;;;;;;;;;;4979833;28;89902;-73
2023/10/13 16:36:13;;;;;;;;;;;;;;;;;;4985499;28;89639;-72
2023/10/13 16:38:38;;;;;;;;;;;;;;;;;;4985366;28;89098;-73
2023/10/13 16:41:06;;;;;;;;;;;;;;;;;;4985791;28;89952;-72
2023/10/13 16:43:33;;;;;;;;;;;;;;;;;;4984007;28;89602;-72
2023/10/13 16:45:58;;;;;;;;;;;;;;;;;;4983120;28;89596;-72
2023/10/13 16:48:26;;;;;;;;;;;;;;;;;;4968267;28;89806;-70
2023/10/13 16:50:52;;;;;;;;;;;;;;;;;;4986388;28;90759;-71
2023/10/13 16:53:17;;;;;;;;;;;;;;;;;;4989798;28;89077;-69
2023/10/13 16:55:42;;;;;;;;;;;;;;;;;;4986037;28;89539;-72
2023/10/13 16:58:11;;;;;;;;;;;;;;;;;;4983594;28;89112;-71
2023/10/13 17:00:38;;;;;;;;;;;;;;;;;;4986192;28;89051;-70
2023/10/13 17:03:05;;;;;;;;;;;;;;;;;;4986352;28;89581;-79
2023/10/13 17:05:38;;;;;;;;;;;;;;;;;;4985090;28;89854;-71
2023/10/13 17:08:03;;;;;;;;;;;;;;;;;;4985937;28;89527;-72
2023/10/13 17:10:31;;;;;;;;;;;;;;;;;;4979836;28;92051;-71
2023/10/13 17:12:56;;;;;;;;;;;;;;;;;;4985536;28;90073;-73
2023/10/13 17:15:22;;;;;;;;;;;;;;;;;;4988667;28;89842;-73
2023/10/13 17:17:49;;;;;;;;;;;;;;;;;;4985692;28;90317;-73
2023/10/13 17:20:15;;;;;;;;;;;;;;;;;;4986577;28;89752;-73
2023/10/13 17:22:41;;;;;;;;;;;;;;;;;;4983421;28;90824;-73
2023/10/13 17:25:07;;;;;;;;;;;;;;;;;;4984869;28;90258;-73
2023/10/13 17:27:32;;;;;;;;;;;;;;;;;;4986110;28;89574;-73
2023/10/13 17:29:58;;;;;;;;;;;;;;;;;;4984583;28;91241;-72
2023/10/13 17:32:23;;;;;;;;;;;;;;;;;;4983902;28;90326;-72
2023/10/13 17:34:48;;;;;;;;;;;;;;;;;;4984176;28;89410;-73
2023/10/13 17:37:14;;;;;;;;;;;;;;;;;;4969205;28;92127;-73
2023/10/13 17:39:40;;;;;;;;;;;;;;;;;;4985640;28;89516;-74
2023/10/13 17:42:05;;;;;;;;;;;;;;;;;;4984093;28;89485;-70
2023/10/13 17:44:30;;;;;;;;;;;;;;;;;;4985272;28;89024;-73
2023/10/13 17:46:56;;;;;;;;;;;;;;;;;;4981085;28;90104;-72
2023/10/13 17:49:21;;;;;;;;;;;;;;;;;;4109818;28;10000924;-72
2023/10/13 17:51:54;;;;;;;;;;;;;;;;;;3508812;28;10000785;-72
2023/10/13 17:54:20;;;;;;;;;;;;;;;;;;2348877;28;10000995;-72
2023/10/13 17:56:45;;;;;;;;;;;;;;;;;;4967693;28;89414;-72
2023/10/13 17:59:12;;;;;;;;;;;;;;;;;;4987414;28;89064;-71
2023/10/13 18:01:37;;;;;;;;;;;;;;;;;;4982804;28;91816;-72
2023/10/13 18:04:09;;;;;;;;;;;;;;;;;;4985463;28;89152;-70
2023/10/13 18:06:36;;;;;;;;;;;;;;;;;;4988679;28;90569;-72
2023/10/13 18:09:02;;;;;;;;;;;;;;;;;;4980008;28;89732;-72
2023/10/13 18:11:29;;;;;;;;;;;;;;;;;;4985201;28;89361;-72
2023/10/13 18:13:54;;;;;;;;;;;;;;;;;;4983235;28;89975;-73
2023/10/13 18:16:21;;;;;;;;;;;;;;;;;;4981161;28;90305;-72
2023/10/13 18:18:47;;;;;;;;;;;;;;;;;;4985359;28;89882;-72
2023/10/13 18:21:13;;;;;;;;;;;;;;;;;;4986438;28;90414;-72
2023/10/13 18:23:42;;;;;;;;;;;;;;;;;;4981094;28;91776;-72
2023/10/13 18:26:08;;;;;;;;;;;;;;;;;;4984928;28;92099;-72
2023/10/13 18:28:33;;;;;;;;;;;;;;;;;;4982501;28;89664;-72
2023/10/13 18:31:01;;;;;;;;;;;;;;;;;;4984583;28;89369;-72
2023/10/13 18:33:26;;;;;;;;;;;;;;;;;;4985227;28;90194;-72
2023/10/13 18:35:52;;;;;;;;;;;;;;;;;;4088850;28;10000328;-72
2023/10/13 18:38:17;;;;;;;;;;;;;;;;;;4963931;28;89550;-72
2023/10/13 18:40:42;;;;;;;;;;;;;;;;;;4982873;28;89946;-72
2023/10/13 18:43:08;;;;;;;;;;;;;;;;;;4987312;28;89982;-72
2023/10/13 18:45:34;;;;;;;;;;;;;;;;;;4984712;28;89022;-71
2023/10/13 18:47:59;;;;;;;;;;;;;;;;;;4985811;28;89655;-71
2023/10/13 18:50:24;;;;;;;;;;;;;;;;;;4985115;28;89800;-71
2023/10/13 18:52:50;;;;;;;;;;;;;;;;;;4983719;28;89232;-72
2023/10/13 18:55:15;;;;;;;;;;;;;;;;;;4983380;28;89535;-72
2023/10/13 18:57:44;;;;;;;;;;;;;;;;;;4984081;28;90084;-72
2023/10/13 19:00:14;;;;;;;;;;;;;;;;;;4981435;28;89976;-72
2023/10/13 19:02:46;;;;;;;;;;;;;;;;;;4985406;28;91142;-72
2023/10/13 19:05:11;;;;;;;;;;;;;;;;;;4987861;28;89627;-71
2023/10/13 19:07:37;;;;;;;;;;;;;;;;;;4986966;28;89685;-71
2023/10/13 19:10:14;;;;;;;;;;;;;;;;;;4987808;28;89722;-71
2023/10/13 19:12:41;;;;;;;;;;;;;;;;;;4983613;28;90198;-71
2023/10/13 19:15:06;;;;;;;;;;;;;;;;;;4988856;28;89594;-72
2023/10/13 19:17:34;;;;;;;;;;;;;;;;;;4969154;28;90858;-71
2023/10/13 19:19:59;;;;;;;;;;;;;;;;;;4990978;28;89463;-71
2023/10/13 19:22:25;;;;;;;;;;;;;;;;;;4996865;28;91154;-72
2023/10/13 19:24:50;;;;;;;;;;;;;;;;;;4997287;28;89491;-71
2023/10/13 19:27:15;;;;;;;;;;;;;;;;;;4988421;28;90317;-70
2023/10/13 19:29:40;;;;;;;;;;;;;;;;;;4986315;28;89337;-71
2023/10/13 19:32:08;;;;;;;;;;;;;;;;;;4987287;28;89263;-71
2023/10/13 19:34:33;;;;;;;;;;;;;;;;;;4987368;28;89506;-70
2023/10/13 19:37:03;;;;;;;;;;;;;;;;;;4986268;28;89866;-72